sensor_id;sensor_type;location;lat;lon;timestamp;temperature;humidity
16200;DHT22;8207;52.494;4.654;2023-05-10T00:00:33;12.80;99.90
16200;DHT22;8207;52.494;4.654;2023-05-10T00:03:00;12.80;99.90
16200;DHT22;8207;52.494;4.654;2023-05-10T00:05:27;12.70;99.90
16200;DHT22;8207;52.494;4.654;2023-05-10T00:07:55;12.70;99.90
16200;DHT22;8207;52.494;4.654;2023-05-10T00:10:22;12.60;99.90
16200;DHT22;8207;52.494;4.654;2023-05-10T00:12:49;12.60;99.90
16200;DHT22;8207;52.494;4.654;2023-05-10T00:15:16;12.60;99.90
16200;DHT22;8207;52.494;4.654;2023-05-10T00:17:42;12.50;99.90
16200;DHT22;8207;52.494;4.654;2023-05-10T00:20:10;12.60;99.90
16200;DHT22;8207;52.494;4.654;2023-05-10T00:22:37;12.50;99.90
16200;DHT22;8207;52.494;4.654;2023-05-10T00:25:07;12.60;99.90
16200;DHT22;8207;52.494;4.654;2023-05-10T00:27:34;12.60;99.90
16200;DHT22;8207;52.494;4.654;2023-05-10T00:30:01;12.60;99.90
16200;DHT22;8207;52.494;4.654;2023-05-10T00:32:28;12.60;99.90
16200;DHT22;8207;52.494;4.654;2023-05-10T00:34:55;12.60;99.90
16200;DHT22;8207;52.494;4.654;2023-05-10T00:37:22;12.60;99.90
16200;DHT22;8207;52.494;4.654;2023-05-10T00:39:48;12.60;99.90
16200;DHT22;8207;52.494;4.654;2023-05-10T00:42:17;12.60;99.90
16200;DHT22;8207;52.494;4.654;2023-05-10T00:44:43;12.70;99.90
16200;DHT22;8207;52.494;4.654;2023-05-10T00:47:10;12.70;99.90
16200;DHT22;8207;52.494;4.654;2023-05-10T00:49:37;12.70;99.90
16200;DHT22;8207;52.494;4.654;2023-05-10T00:52:04;12.70;99.90
16200;DHT22;8207;52.494;4.654;2023-05-10T00:54:31;12.70;99.90
16200;DHT22;8207;52.494;4.654;2023-05-10T00:56:58;12.70;99.90
16200;DHT22;8207;52.494;4.654;2023-05-10T00:59:26;12.60;99.90
16200;DHT22;8207;52.494;4.654;2023-05-10T01:01:53;12.70;99.90
16200;DHT22;8207;52.494;4.654;2023-05-10T01:04:20;12.70;99.90
16200;DHT22;8207;52.494;4.654;2023-05-10T01:06:51;12.70;99.90
16200;DHT22;8207;52.494;4.654;2023-05-10T01:09:18;12.70;99.90
16200;DHT22;8207;52.494;4.654;2023-05-10T01:11:46;12.70;99.90
16200;DHT22;8207;52.494;4.654;2023-05-10T01:14:13;12.70;99.90
16200;DHT22;8207;52.494;4.654;2023-05-10T01:16:44;12.70;99.90
16200;DHT22;8207;52.494;4.654;2023-05-10T01:19:17;12.70;99.90
16200;DHT22;8207;52.494;4.654;2023-05-10T01:21:49;12.60;99.90
16200;DHT22;8207;52.494;4.654;2023-05-10T01:30:41;12.60;99.90
16200;DHT22;8207;52.494;4.654;2023-05-10T01:33:16;12.60;99.90
16200;DHT22;8207;52.494;4.654;2023-05-10T01:35:50;12.60;99.90
16200;DHT22;8207;52.494;4.654;2023-05-10T01:38:22;12.60;99.90
16200;DHT22;8207;52.494;4.654;2023-05-10T01:40:59;12.50;99.90
16200;DHT22;8207;52.494;4.654;2023-05-10T01:43:32;12.50;99.90
16200;DHT22;8207;52.494;4.654;2023-05-10T01:46:05;12.40;99.90
16200;DHT22;8207;52.494;4.654;2023-05-10T01:48:40;12.50;99.90
16200;DHT22;8207;52.494;4.654;2023-05-10T01:51:12;12.50;99.90
16200;DHT22;8207;52.494;4.654;2023-05-10T01:53:40;12.40;99.90
16200;DHT22;8207;52.494;4.654;2023-05-10T01:56:09;12.40;99.90
16200;DHT22;8207;52.494;4.654;2023-05-10T01:58:39;12.40;99.90
16200;DHT22;8207;52.494;4.654;2023-05-10T02:01:08;12.40;99.90
16200;DHT22;8207;52.494;4.654;2023-05-10T02:03:38;12.30;99.90
16200;DHT22;8207;52.494;4.654;2023-05-10T02:06:07;12.30;99.90
16200;DHT22;8207;52.494;4.654;2023-05-10T02:08:36;12.30;99.90
16200;DHT22;8207;52.494;4.654;2023-05-10T02:11:03;12.20;99.90
16200;DHT22;8207;52.494;4.654;2023-05-10T02:13:31;12.20;99.90
16200;DHT22;8207;52.494;4.654;2023-05-10T02:15:59;12.20;99.90
16200;DHT22;8207;52.494;4.654;2023-05-10T02:18:27;12.20;99.90
16200;DHT22;8207;52.494;4.654;2023-05-10T02:20:58;12.20;99.90
16200;DHT22;8207;52.494;4.654;2023-05-10T02:23:26;12.10;99.90
16200;DHT22;8207;52.494;4.654;2023-05-10T02:25:54;12.10;99.90
16200;DHT22;8207;52.494;4.654;2023-05-10T02:28:22;12.00;99.90
16200;DHT22;8207;52.494;4.654;2023-05-10T02:30:51;12.10;99.90
16200;DHT22;8207;52.494;4.654;2023-05-10T02:33:18;12.10;99.90
16200;DHT22;8207;52.494;4.654;2023-05-10T02:35:46;12.10;99.90
16200;DHT22;8207;52.494;4.654;2023-05-10T02:38:15;12.10;99.90
16200;DHT22;8207;52.494;4.654;2023-05-10T02:40:43;12.10;99.90
16200;DHT22;8207;52.494;4.654;2023-05-10T02:43:12;12.10;99.90
16200;DHT22;8207;52.494;4.654;2023-05-10T02:45:41;12.10;99.90
16200;DHT22;8207;52.494;4.654;2023-05-10T02:48:09;12.10;99.90
16200;DHT22;8207;52.494;4.654;2023-05-10T02:50:37;12.10;99.90
16200;DHT22;8207;52.494;4.654;2023-05-10T02:53:10;12.10;99.90
16200;DHT22;8207;52.494;4.654;2023-05-10T02:55:40;12.00;99.90
16200;DHT22;8207;52.494;4.654;2023-05-10T02:58:08;12.00;99.90
16200;DHT22;8207;52.494;4.654;2023-05-10T03:00:35;11.90;99.90
16200;DHT22;8207;52.494;4.654;2023-05-10T03:03:02;11.90;99.90
16200;DHT22;8207;52.494;4.654;2023-05-10T03:05:29;11.90;99.90
16200;DHT22;8207;52.494;4.654;2023-05-10T03:07:56;11.80;99.90
16200;DHT22;8207;52.494;4.654;2023-05-10T03:10:27;11.80;99.90
16200;DHT22;8207;52.494;4.654;2023-05-10T03:13:05;11.80;99.90
16200;DHT22;8207;52.494;4.654;2023-05-10T03:15:52;11.80;99.90
16200;DHT22;8207;52.494;4.654;2023-05-10T03:18:23;11.70;99.90
16200;DHT22;8207;52.494;4.654;2023-05-10T03:20:59;11.70;99.90
16200;DHT22;8207;52.494;4.654;2023-05-10T03:23:35;11.70;99.90
16200;DHT22;8207;52.494;4.654;2023-05-10T03:26:04;11.70;99.90
16200;DHT22;8207;52.494;4.654;2023-05-10T03:28:34;11.70;99.90
16200;DHT22;8207;52.494;4.654;2023-05-10T03:31:02;11.70;99.90
16200;DHT22;8207;52.494;4.654;2023-05-10T03:33:31;11.70;99.90
16200;DHT22;8207;52.494;4.654;2023-05-10T03:35:58;11.70;99.90
16200;DHT22;8207;52.494;4.654;2023-05-10T03:38:25;11.70;99.90
16200;DHT22;8207;52.494;4.654;2023-05-10T03:40:52;11.70;99.90
16200;DHT22;8207;52.494;4.654;2023-05-10T03:43:19;11.60;99.90
16200;DHT22;8207;52.494;4.654;2023-05-10T03:45:47;11.60;99.90
16200;DHT22;8207;52.494;4.654;2023-05-10T03:48:14;11.60;99.90
16200;DHT22;8207;52.494;4.654;2023-05-10T03:50:40;11.60;99.90
16200;DHT22;8207;52.494;4.654;2023-05-10T03:53:08;11.60;99.90
16200;DHT22;8207;52.494;4.654;2023-05-10T03:55:35;11.70;99.90
16200;DHT22;8207;52.494;4.654;2023-05-10T03:58:02;11.70;99.90
16200;DHT22;8207;52.494;4.654;2023-05-10T04:00:28;11.70;99.90
16200;DHT22;8207;52.494;4.654;2023-05-10T04:02:57;11.70;99.90
16200;DHT22;8207;52.494;4.654;2023-05-10T04:05:23;11.80;99.90
16200;DHT22;8207;52.494;4.654;2023-05-10T04:07:50;11.80;99.90
16200;DHT22;8207;52.494;4.654;2023-05-10T04:10:17;11.80;99.90
16200;DHT22;8207;52.494;4.654;2023-05-10T04:12:44;11.80;99.90
16200;DHT22;8207;52.494;4.654;2023-05-10T04:15:12;11.80;99.90
16200;DHT22;8207;52.494;4.654;2023-05-10T04:17:39;11.80;99.90
16200;DHT22;8207;52.494;4.654;2023-05-10T04:20:08;11.80;99.90
16200;DHT22;8207;52.494;4.654;2023-05-10T04:22:35;11.80;99.90
16200;DHT22;8207;52.494;4.654;2023-05-10T04:25:02;11.80;99.90
16200;DHT22;8207;52.494;4.654;2023-05-10T04:27:29;11.80;99.90
16200;DHT22;8207;52.494;4.654;2023-05-10T04:29:56;11.90;99.90
16200;DHT22;8207;52.494;4.654;2023-05-10T04:32:23;11.90;99.90
16200;DHT22;8207;52.494;4.654;2023-05-10T04:34:50;11.90;99.90
16200;DHT22;8207;52.494;4.654;2023-05-10T04:37:19;11.90;99.90
16200;DHT22;8207;52.494;4.654;2023-05-10T04:39:46;12.00;99.90
16200;DHT22;8207;52.494;4.654;2023-05-10T04:42:13;12.00;99.90
16200;DHT22;8207;52.494;4.654;2023-05-10T04:44:41;12.00;99.90
16200;DHT22;8207;52.494;4.654;2023-05-10T04:47:08;12.00;99.90
16200;DHT22;8207;52.494;4.654;2023-05-10T04:49:35;12.10;99.90
16200;DHT22;8207;52.494;4.654;2023-05-10T04:52:01;12.10;99.90
16200;DHT22;8207;52.494;4.654;2023-05-10T04:54:30;12.10;99.90
16200;DHT22;8207;52.494;4.654;2023-05-10T04:56:56;12.10;99.90
16200;DHT22;8207;52.494;4.654;2023-05-10T04:59:23;12.10;99.90
16200;DHT22;8207;52.494;4.654;2023-05-10T05:01:50;12.20;99.90
16200;DHT22;8207;52.494;4.654;2023-05-10T05:04:18;12.20;99.90
16200;DHT22;8207;52.494;4.654;2023-05-10T05:06:45;12.10;99.90
16200;DHT22;8207;52.494;4.654;2023-05-10T05:09:12;12.10;99.90
16200;DHT22;8207;52.494;4.654;2023-05-10T05:11:40;12.20;99.90
16200;DHT22;8207;52.494;4.654;2023-05-10T05:14:07;12.20;99.90
16200;DHT22;8207;52.494;4.654;2023-05-10T05:16:34;12.30;99.90
16200;DHT22;8207;52.494;4.654;2023-05-10T05:19:00;12.20;99.90
16200;DHT22;8207;52.494;4.654;2023-05-10T05:21:27;12.30;99.90
16200;DHT22;8207;52.494;4.654;2023-05-10T05:23:54;12.30;99.90
16200;DHT22;8207;52.494;4.654;2023-05-10T05:26:21;12.30;99.90
16200;DHT22;8207;52.494;4.654;2023-05-10T05:28:49;12.30;99.90
16200;DHT22;8207;52.494;4.654;2023-05-10T05:31:19;12.30;99.90
16200;DHT22;8207;52.494;4.654;2023-05-10T05:33:46;12.30;99.90
16200;DHT22;8207;52.494;4.654;2023-05-10T05:36:12;12.30;99.90
16200;DHT22;8207;52.494;4.654;2023-05-10T05:38:39;12.30;99.90
16200;DHT22;8207;52.494;4.654;2023-05-10T05:41:06;12.30;99.90
16200;DHT22;8207;52.494;4.654;2023-05-10T05:43:33;12.40;99.90
16200;DHT22;8207;52.494;4.654;2023-05-10T05:46:01;12.40;99.90
16200;DHT22;8207;52.494;4.654;2023-05-10T05:48:29;12.50;99.90
16200;DHT22;8207;52.494;4.654;2023-05-10T05:50:57;12.60;99.90
16200;DHT22;8207;52.494;4.654;2023-05-10T05:53:24;12.60;99.90
16200;DHT22;8207;52.494;4.654;2023-05-10T05:55:51;12.60;99.90
16200;DHT22;8207;52.494;4.654;2023-05-10T05:58:19;12.60;99.90
16200;DHT22;8207;52.494;4.654;2023-05-10T06:00:46;12.70;99.90
16200;DHT22;8207;52.494;4.654;2023-05-10T06:03:15;12.70;99.90
16200;DHT22;8207;52.494;4.654;2023-05-10T06:05:41;12.70;99.90
16200;DHT22;8207;52.494;4.654;2023-05-10T06:08:08;12.80;99.90
16200;DHT22;8207;52.494;4.654;2023-05-10T06:10:35;12.80;99.90
16200;DHT22;8207;52.494;4.654;2023-05-10T06:13:02;12.80;99.90
16200;DHT22;8207;52.494;4.654;2023-05-10T06:15:29;12.80;99.90
16200;DHT22;8207;52.494;4.654;2023-05-10T06:17:56;12.90;99.90
16200;DHT22;8207;52.494;4.654;2023-05-10T06:20:24;12.90;99.90
16200;DHT22;8207;52.494;4.654;2023-05-10T06:22:51;12.90;99.90
16200;DHT22;8207;52.494;4.654;2023-05-10T06:25:18;13.00;99.90
16200;DHT22;8207;52.494;4.654;2023-05-10T06:27:45;13.00;99.90
16200;DHT22;8207;52.494;4.654;2023-05-10T06:30:12;13.00;99.90
16200;DHT22;8207;52.494;4.654;2023-05-10T06:32:40;13.00;99.90
16200;DHT22;8207;52.494;4.654;2023-05-10T06:35:09;13.00;99.90
16200;DHT22;8207;52.494;4.654;2023-05-10T06:37:38;13.10;99.90
16200;DHT22;8207;52.494;4.654;2023-05-10T06:40:06;13.10;99.90
16200;DHT22;8207;52.494;4.654;2023-05-10T06:42:33;13.10;99.90
16200;DHT22;8207;52.494;4.654;2023-05-10T06:45:00;13.20;99.90
16200;DHT22;8207;52.494;4.654;2023-05-10T06:47:26;13.30;99.90
16200;DHT22;8207;52.494;4.654;2023-05-10T06:49:53;13.30;99.90
16200;DHT22;8207;52.494;4.654;2023-05-10T06:52:21;13.30;99.90
16200;DHT22;8207;52.494;4.654;2023-05-10T06:54:50;13.30;99.90
16200;DHT22;8207;52.494;4.654;2023-05-10T06:57:17;13.40;99.90
16200;DHT22;8207;52.494;4.654;2023-05-10T06:59:44;13.50;99.90
16200;DHT22;8207;52.494;4.654;2023-05-10T07:02:11;13.60;99.90
16200;DHT22;8207;52.494;4.654;2023-05-10T07:04:38;13.80;99.90
16200;DHT22;8207;52.494;4.654;2023-05-10T07:07:05;13.80;99.90
16200;DHT22;8207;52.494;4.654;2023-05-10T07:09:32;13.90;99.90
16200;DHT22;8207;52.494;4.654;2023-05-10T07:12:00;13.90;99.90
16200;DHT22;8207;52.494;4.654;2023-05-10T07:14:27;14.00;99.90
16200;DHT22;8207;52.494;4.654;2023-05-10T07:16:54;14.10;99.90
16200;DHT22;8207;52.494;4.654;2023-05-10T07:19:21;14.10;99.90
16200;DHT22;8207;52.494;4.654;2023-05-10T07:21:47;14.10;99.90
16200;DHT22;8207;52.494;4.654;2023-05-10T07:24:14;14.20;99.90
16200;DHT22;8207;52.494;4.654;2023-05-10T07:26:41;14.20;99.90
16200;DHT22;8207;52.494;4.654;2023-05-10T07:29:09;14.20;99.90
16200;DHT22;8207;52.494;4.654;2023-05-10T07:31:36;14.30;99.90
16200;DHT22;8207;52.494;4.654;2023-05-10T07:34:03;14.30;99.90
16200;DHT22;8207;52.494;4.654;2023-05-10T07:36:30;14.40;99.90
16200;DHT22;8207;52.494;4.654;2023-05-10T07:38:57;14.40;99.90
16200;DHT22;8207;52.494;4.654;2023-05-10T07:41:24;14.40;99.90
16200;DHT22;8207;52.494;4.654;2023-05-10T07:43:51;14.50;99.90
16200;DHT22;8207;52.494;4.654;2023-05-10T07:46:19;14.50;99.90
16200;DHT22;8207;52.494;4.654;2023-05-10T07:48:46;14.60;99.90
16200;DHT22;8207;52.494;4.654;2023-05-10T07:51:13;14.60;99.90
16200;DHT22;8207;52.494;4.654;2023-05-10T07:53:40;14.70;99.90
16200;DHT22;8207;52.494;4.654;2023-05-10T07:56:21;14.70;99.90
16200;DHT22;8207;52.494;4.654;2023-05-10T07:58:48;14.80;99.90
16200;DHT22;8207;52.494;4.654;2023-05-10T08:01:15;14.90;99.90
16200;DHT22;8207;52.494;4.654;2023-05-10T08:03:43;14.90;99.90
16200;DHT22;8207;52.494;4.654;2023-05-10T08:06:10;15.00;99.90
16200;DHT22;8207;52.494;4.654;2023-05-10T08:08:37;15.10;99.90
16200;DHT22;8207;52.494;4.654;2023-05-10T08:11:04;15.10;99.90
16200;DHT22;8207;52.494;4.654;2023-05-10T08:13:31;15.10;99.90
16200;DHT22;8207;52.494;4.654;2023-05-10T08:15:58;15.20;99.90
16200;DHT22;8207;52.494;4.654;2023-05-10T08:18:24;15.20;99.90
16200;DHT22;8207;52.494;4.654;2023-05-10T08:20:53;15.20;99.90
16200;DHT22;8207;52.494;4.654;2023-05-10T08:23:19;15.20;99.90
16200;DHT22;8207;52.494;4.654;2023-05-10T08:25:46;15.30;99.90
16200;DHT22;8207;52.494;4.654;2023-05-10T08:28:13;15.30;99.90
16200;DHT22;8207;52.494;4.654;2023-05-10T08:30:40;15.30;99.90
16200;DHT22;8207;52.494;4.654;2023-05-10T08:33:07;15.40;99.90
16200;DHT22;8207;52.494;4.654;2023-05-10T08:35:34;15.60;99.90
16200;DHT22;8207;52.494;4.654;2023-05-10T08:38:02;15.70;99.90
16200;DHT22;8207;52.494;4.654;2023-05-10T08:40:29;15.80;99.90
16200;DHT22;8207;52.494;4.654;2023-05-10T08:43:01;15.80;99.90
16200;DHT22;8207;52.494;4.654;2023-05-10T08:45:32;15.80;99.90
16200;DHT22;8207;52.494;4.654;2023-05-10T08:48:01;16.00;99.90
16200;DHT22;8207;52.494;4.654;2023-05-10T08:50:29;16.10;99.90
16200;DHT22;8207;52.494;4.654;2023-05-10T08:53:00;16.20;99.90
16200;DHT22;8207;52.494;4.654;2023-05-10T08:55:28;16.20;99.90
16200;DHT22;8207;52.494;4.654;2023-05-10T08:57:55;16.40;99.90
16200;DHT22;8207;52.494;4.654;2023-05-10T09:00:22;16.40;99.90
16200;DHT22;8207;52.494;4.654;2023-05-10T09:02:50;16.40;99.90
16200;DHT22;8207;52.494;4.654;2023-05-10T09:05:17;16.50;99.90
16200;DHT22;8207;52.494;4.654;2023-05-10T09:07:44;16.50;99.90
16200;DHT22;8207;52.494;4.654;2023-05-10T09:10:11;16.60;99.90
16200;DHT22;8207;52.494;4.654;2023-05-10T09:12:41;16.70;99.90
16200;DHT22;8207;52.494;4.654;2023-05-10T09:15:09;16.80;99.90
16200;DHT22;8207;52.494;4.654;2023-05-10T09:17:38;16.80;99.90
16200;DHT22;8207;52.494;4.654;2023-05-10T09:20:06;16.90;99.90
16200;DHT22;8207;52.494;4.654;2023-05-10T09:22:33;16.90;99.90
16200;DHT22;8207;52.494;4.654;2023-05-10T09:25:07;16.80;99.90
16200;DHT22;8207;52.494;4.654;2023-05-10T09:27:35;16.80;99.90
16200;DHT22;8207;52.494;4.654;2023-05-10T09:30:05;16.80;99.90
16200;DHT22;8207;52.494;4.654;2023-05-10T09:32:39;16.90;99.90
16200;DHT22;8207;52.494;4.654;2023-05-10T09:35:11;16.90;99.90
16200;DHT22;8207;52.494;4.654;2023-05-10T09:37:39;17.00;99.90
16200;DHT22;8207;52.494;4.654;2023-05-10T09:40:08;17.00;99.90
16200;DHT22;8207;52.494;4.654;2023-05-10T09:42:37;17.10;99.90
16200;DHT22;8207;52.494;4.654;2023-05-10T09:45:07;17.10;99.90
16200;DHT22;8207;52.494;4.654;2023-05-10T09:47:34;17.00;99.90
16200;DHT22;8207;52.494;4.654;2023-05-10T09:50:01;16.90;99.90
16200;DHT22;8207;52.494;4.654;2023-05-10T09:52:30;16.80;99.90
16200;DHT22;8207;52.494;4.654;2023-05-10T09:54:57;16.60;99.90
16200;DHT22;8207;52.494;4.654;2023-05-10T09:57:24;16.60;99.90
16200;DHT22;8207;52.494;4.654;2023-05-10T09:59:52;16.40;99.90
16200;DHT22;8207;52.494;4.654;2023-05-10T10:02:21;16.30;99.90
16200;DHT22;8207;52.494;4.654;2023-05-10T10:04:55;16.10;99.90
16200;DHT22;8207;52.494;4.654;2023-05-10T10:07:23;16.00;99.90
16200;DHT22;8207;52.494;4.654;2023-05-10T10:09:52;16.00;99.90
16200;DHT22;8207;52.494;4.654;2023-05-10T10:12:19;16.00;99.90
16200;DHT22;8207;52.494;4.654;2023-05-10T10:14:47;16.00;99.90
16200;DHT22;8207;52.494;4.654;2023-05-10T10:17:15;16.00;99.90
16200;DHT22;8207;52.494;4.654;2023-05-10T10:19:43;16.10;99.90
16200;DHT22;8207;52.494;4.654;2023-05-10T10:22:11;16.00;99.90
16200;DHT22;8207;52.494;4.654;2023-05-10T10:24:38;16.10;99.90
16200;DHT22;8207;52.494;4.654;2023-05-10T10:27:16;16.10;99.90
16200;DHT22;8207;52.494;4.654;2023-05-10T10:29:52;16.10;99.90
16200;DHT22;8207;52.494;4.654;2023-05-10T10:35:12;16.30;99.90
16200;DHT22;8207;52.494;4.654;2023-05-10T10:37:47;16.40;99.90
16200;DHT22;8207;52.494;4.654;2023-05-10T10:40:24;16.40;99.90
16200;DHT22;8207;52.494;4.654;2023-05-10T10:42:52;16.50;99.90
16200;DHT22;8207;52.494;4.654;2023-05-10T10:45:21;16.50;99.90
16200;DHT22;8207;52.494;4.654;2023-05-10T10:47:48;16.50;99.90
16200;DHT22;8207;52.494;4.654;2023-05-10T10:50:16;16.50;99.90
16200;DHT22;8207;52.494;4.654;2023-05-10T10:52:44;16.50;99.90
16200;DHT22;8207;52.494;4.654;2023-05-10T10:55:13;16.50;99.90
16200;DHT22;8207;52.494;4.654;2023-05-10T10:57:47;16.50;99.90
16200;DHT22;8207;52.494;4.654;2023-05-10T11:00:26;16.60;99.90
16200;DHT22;8207;52.494;4.654;2023-05-10T11:02:57;16.80;99.90
16200;DHT22;8207;52.494;4.654;2023-05-10T11:05:40;17.00;99.90
16200;DHT22;8207;52.494;4.654;2023-05-10T11:08:10;17.20;99.90
16200;DHT22;8207;52.494;4.654;2023-05-10T11:10:38;17.40;99.90
16200;DHT22;8207;52.494;4.654;2023-05-10T11:13:06;17.60;99.90
16200;DHT22;8207;52.494;4.654;2023-05-10T11:15:35;17.80;99.90
16200;DHT22;8207;52.494;4.654;2023-05-10T11:18:17;17.80;99.90
16200;DHT22;8207;52.494;4.654;2023-05-10T11:20:50;18.00;99.90
16200;DHT22;8207;52.494;4.654;2023-05-10T11:23:17;18.10;99.90
16200;DHT22;8207;52.494;4.654;2023-05-10T11:25:45;18.20;99.90
16200;DHT22;8207;52.494;4.654;2023-05-10T11:28:13;18.50;99.90
16200;DHT22;8207;52.494;4.654;2023-05-10T11:30:40;18.50;99.90
16200;DHT22;8207;52.494;4.654;2023-05-10T11:33:08;18.70;99.90
16200;DHT22;8207;52.494;4.654;2023-05-10T11:35:38;18.60;99.90
16200;DHT22;8207;52.494;4.654;2023-05-10T11:38:07;18.80;99.90
16200;DHT22;8207;52.494;4.654;2023-05-10T11:40:35;18.80;99.90
16200;DHT22;8207;52.494;4.654;2023-05-10T11:43:02;18.70;99.90
16200;DHT22;8207;52.494;4.654;2023-05-10T11:45:30;18.70;99.90
16200;DHT22;8207;52.494;4.654;2023-05-10T11:47:59;18.80;99.90
16200;DHT22;8207;52.494;4.654;2023-05-10T11:50:26;18.90;99.90
16200;DHT22;8207;52.494;4.654;2023-05-10T11:52:54;19.00;99.90
16200;DHT22;8207;52.494;4.654;2023-05-10T11:55:23;19.10;99.90
16200;DHT22;8207;52.494;4.654;2023-05-10T11:57:52;19.30;99.90
16200;DHT22;8207;52.494;4.654;2023-05-10T12:00:19;19.50;99.90
16200;DHT22;8207;52.494;4.654;2023-05-10T12:02:46;19.40;99.90
16200;DHT22;8207;52.494;4.654;2023-05-10T12:05:13;19.40;99.90
16200;DHT22;8207;52.494;4.654;2023-05-10T12:07:41;19.30;99.90
16200;DHT22;8207;52.494;4.654;2023-05-10T12:10:09;19.40;99.90
16200;DHT22;8207;52.494;4.654;2023-05-10T12:12:40;19.30;99.90
16200;DHT22;8207;52.494;4.654;2023-05-10T12:15:12;19.30;99.90
16200;DHT22;8207;52.494;4.654;2023-05-10T12:17:39;19.30;99.90
16200;DHT22;8207;52.494;4.654;2023-05-10T12:20:17;19.30;99.90
16200;DHT22;8207;52.494;4.654;2023-05-10T12:22:45;19.40;99.90
16200;DHT22;8207;52.494;4.654;2023-05-10T12:25:12;19.50;99.90
16200;DHT22;8207;52.494;4.654;2023-05-10T12:27:41;19.50;99.90
16200;DHT22;8207;52.494;4.654;2023-05-10T12:30:19;19.60;99.90
16200;DHT22;8207;52.494;4.654;2023-05-10T12:32:46;19.60;99.90
16200;DHT22;8207;52.494;4.654;2023-05-10T12:35:13;19.40;99.90
16200;DHT22;8207;52.494;4.654;2023-05-10T12:37:41;19.30;99.90
16200;DHT22;8207;52.494;4.654;2023-05-10T12:40:10;19.30;99.90
16200;DHT22;8207;52.494;4.654;2023-05-10T12:42:39;19.20;99.90
16200;DHT22;8207;52.494;4.654;2023-05-10T12:45:08;19.20;99.90
16200;DHT22;8207;52.494;4.654;2023-05-10T12:47:35;19.40;99.90
16200;DHT22;8207;52.494;4.654;2023-05-10T12:50:02;19.30;99.90
16200;DHT22;8207;52.494;4.654;2023-05-10T12:52:30;19.10;99.90
16200;DHT22;8207;52.494;4.654;2023-05-10T12:54:58;18.70;99.90
16200;DHT22;8207;52.494;4.654;2023-05-10T12:57:25;18.40;99.90
16200;DHT22;8207;52.494;4.654;2023-05-10T12:59:53;18.10;99.90
16200;DHT22;8207;52.494;4.654;2023-05-10T13:02:20;17.90;99.90
16200;DHT22;8207;52.494;4.654;2023-05-10T13:04:49;17.80;99.90
16200;DHT22;8207;52.494;4.654;2023-05-10T13:07:15;17.70;99.90
16200;DHT22;8207;52.494;4.654;2023-05-10T13:09:42;17.60;99.90
16200;DHT22;8207;52.494;4.654;2023-05-10T13:12:09;17.50;99.90
16200;DHT22;8207;52.494;4.654;2023-05-10T13:14:36;17.40;99.90
16200;DHT22;8207;52.494;4.654;2023-05-10T13:17:04;17.30;99.90
16200;DHT22;8207;52.494;4.654;2023-05-10T13:19:31;17.00;99.90
16200;DHT22;8207;52.494;4.654;2023-05-10T13:21:58;16.90;99.90
16200;DHT22;8207;52.494;4.654;2023-05-10T13:24:25;16.90;99.90
16200;DHT22;8207;52.494;4.654;2023-05-10T13:26:52;17.00;99.90
16200;DHT22;8207;52.494;4.654;2023-05-10T13:29:18;17.10;99.90
16200;DHT22;8207;52.494;4.654;2023-05-10T13:31:46;17.30;99.90
16200;DHT22;8207;52.494;4.654;2023-05-10T13:34:14;17.40;99.90
16200;DHT22;8207;52.494;4.654;2023-05-10T13:36:41;17.50;99.90
16200;DHT22;8207;52.494;4.654;2023-05-10T13:39:08;17.60;99.90
16200;DHT22;8207;52.494;4.654;2023-05-10T13:41:35;17.50;99.90
16200;DHT22;8207;52.494;4.654;2023-05-10T13:44:02;17.40;99.90
16200;DHT22;8207;52.494;4.654;2023-05-10T13:46:29;17.30;99.90
16200;DHT22;8207;52.494;4.654;2023-05-10T13:48:56;17.50;99.90
16200;DHT22;8207;52.494;4.654;2023-05-10T13:51:24;17.70;99.90
16200;DHT22;8207;52.494;4.654;2023-05-10T13:53:51;17.90;99.90
16200;DHT22;8207;52.494;4.654;2023-05-10T13:56:18;17.90;99.90
16200;DHT22;8207;52.494;4.654;2023-05-10T13:58:45;18.00;99.90
16200;DHT22;8207;52.494;4.654;2023-05-10T14:01:12;18.10;99.90
16200;DHT22;8207;52.494;4.654;2023-05-10T14:03:38;17.90;99.90
16200;DHT22;8207;52.494;4.654;2023-05-10T14:06:05;18.00;99.90
16200;DHT22;8207;52.494;4.654;2023-05-10T14:08:35;17.90;99.90
16200;DHT22;8207;52.494;4.654;2023-05-10T14:11:02;18.00;99.90
16200;DHT22;8207;52.494;4.654;2023-05-10T14:13:29;17.90;99.90
16200;DHT22;8207;52.494;4.654;2023-05-10T14:15:56;18.00;99.90
16200;DHT22;8207;52.494;4.654;2023-05-10T14:18:24;18.10;99.90
16200;DHT22;8207;52.494;4.654;2023-05-10T14:20:51;18.20;99.90
16200;DHT22;8207;52.494;4.654;2023-05-10T14:23:18;18.20;99.90
16200;DHT22;8207;52.494;4.654;2023-05-10T14:25:50;18.30;99.90
16200;DHT22;8207;52.494;4.654;2023-05-10T14:28:17;18.50;99.90
16200;DHT22;8207;52.494;4.654;2023-05-10T14:30:45;18.60;99.90
16200;DHT22;8207;52.494;4.654;2023-05-10T14:33:12;18.70;99.90
16200;DHT22;8207;52.494;4.654;2023-05-10T14:35:39;18.80;99.90
16200;DHT22;8207;52.494;4.654;2023-05-10T14:38:06;18.60;99.90
16200;DHT22;8207;52.494;4.654;2023-05-10T14:40:33;18.60;99.90
16200;DHT22;8207;52.494;4.654;2023-05-10T14:43:01;18.60;99.90
16200;DHT22;8207;52.494;4.654;2023-05-10T14:45:28;18.70;99.90
16200;DHT22;8207;52.494;4.654;2023-05-10T14:47:55;18.60;99.90
16200;DHT22;8207;52.494;4.654;2023-05-10T14:50:22;18.50;99.90
16200;DHT22;8207;52.494;4.654;2023-05-10T14:52:49;18.40;99.90
16200;DHT22;8207;52.494;4.654;2023-05-10T14:55:16;18.40;99.90
16200;DHT22;8207;52.494;4.654;2023-05-10T14:57:43;18.30;99.90
16200;DHT22;8207;52.494;4.654;2023-05-10T15:00:15;18.20;99.90
16200;DHT22;8207;52.494;4.654;2023-05-10T15:02:42;18.10;99.90
16200;DHT22;8207;52.494;4.654;2023-05-10T15:05:09;18.10;99.90
16200;DHT22;8207;52.494;4.654;2023-05-10T15:07:36;18.00;99.90
16200;DHT22;8207;52.494;4.654;2023-05-10T15:10:04;18.00;99.90
16200;DHT22;8207;52.494;4.654;2023-05-10T15:12:31;18.00;99.90
16200;DHT22;8207;52.494;4.654;2023-05-10T15:14:57;17.90;99.90
16200;DHT22;8207;52.494;4.654;2023-05-10T15:17:26;17.90;99.90
16200;DHT22;8207;52.494;4.654;2023-05-10T15:19:52;17.80;99.90
16200;DHT22;8207;52.494;4.654;2023-05-10T15:22:19;17.70;99.90
16200;DHT22;8207;52.494;4.654;2023-05-10T15:24:46;17.60;99.90
16200;DHT22;8207;52.494;4.654;2023-05-10T15:27:13;17.50;99.90
16200;DHT22;8207;52.494;4.654;2023-05-10T15:29:40;17.40;99.90
16200;DHT22;8207;52.494;4.654;2023-05-10T15:32:07;17.50;99.90
16200;DHT22;8207;52.494;4.654;2023-05-10T15:34:35;17.40;99.90
16200;DHT22;8207;52.494;4.654;2023-05-10T15:37:02;17.40;99.90
16200;DHT22;8207;52.494;4.654;2023-05-10T15:39:29;17.40;99.90
16200;DHT22;8207;52.494;4.654;2023-05-10T15:41:56;17.30;99.90
16200;DHT22;8207;52.494;4.654;2023-05-10T15:44:23;17.20;99.90
16200;DHT22;8207;52.494;4.654;2023-05-10T15:46:50;17.20;99.90
16200;DHT22;8207;52.494;4.654;2023-05-10T15:49:17;17.10;99.90
16200;DHT22;8207;52.494;4.654;2023-05-10T15:51:45;17.10;99.90
16200;DHT22;8207;52.494;4.654;2023-05-10T15:54:12;17.10;99.90
16200;DHT22;8207;52.494;4.654;2023-05-10T15:56:39;17.00;99.90
16200;DHT22;8207;52.494;4.654;2023-05-10T15:59:06;17.00;99.90